Training

Spin Video     https://www.youtube.com/watch?v=Vj8vdWBMePM&list=UULpWoZCi_X3hPwW6J_RsFEg     … [Read More...]

Weather

METAR FOR KCHA (Issued: Sat, May 23rd 2015 1:53 AM UTC):
KCHA 230153Z 35003KT 10SM SCT150 BKN250 16/09 A3027 RMK AO2 SLP246 T01610094 $

Accomplishments

Congratulations

Congratulations to Bobby Fitzu, for soloing on May 8, 2015 … [Read More...]

Congratulations

Congratulations to Stan Sewell who soloed April 24, 2015. … [Read More...]

Dallas Bay Skypark - 1A0